Time;durP1;ratioP1;P1;durP2;ratioP2;P2;SDS_P1;SDS_P2;PMS_P1;PMS_P2;Temp;Humidity;BMP_temperature;BMP_pressure;BME280_temperature;BME280_humidity;BME280_pressure;Samples;Min_cycle;Max_cycle;Signal;HPM_P1;HPM_P2
2023/07/06 00:03:38;;;;;;;7.10;4.20;;;;;;;17.42;87.16;100237.00;180889;1267;43750;-59
2023/07/06 00:07:41;;;;;;;5.90;3.90;;;;;;;17.37;86.78;100239.97;180963;1267;43752;-58
2023/07/06 00:11:44;;;;;;;4.80;3.80;;;;;;;17.29;86.91;100243.83;180993;1267;58006;-58
2023/07/06 00:15:48;;;;;;;6.50;4.50;;;;;;;17.14;87.10;100244.66;181030;1267;43108;-59
2023/07/06 00:19:51;;;;;;;6.60;3.20;;;;;;;17.04;87.50;100244.05;181063;1267;43394;-58
2023/07/06 00:23:57;;;;;;;5.10;2.70;;;;;;;16.94;87.62;100241.82;180955;1267;43124;-59
2023/07/06 00:28:02;;;;;;;8.90;4.20;;;;;;;16.84;87.69;100242.56;180991;1267;43435;-58
2023/07/06 00:32:28;;;;;;;9.40;4.70;;;;;;;16.76;87.48;100242.56;180929;1267;58065;-59
2023/07/06 00:36:35;;;;;;;8.80;5.10;;;;;;;16.69;86.80;100239.36;180943;1267;43062;-59
2023/07/06 00:40:39;;;;;;;4.30;3.30;;;;;;;16.58;87.06;100242.28;180950;1267;43907;-58
2023/07/06 00:44:57;;;;;;;6.20;3.60;;;;;;;16.38;88.21;100245.10;180938;1267;43701;-58
2023/07/06 00:49:03;;;;;;;8.60;3.80;;;;;;;16.22;87.98;100248.98;181015;1267;43014;-58
2023/07/06 00:53:13;;;;;;;6.30;4.60;;;;;;;16.10;88.12;100247.84;180982;1266;57110;-58
2023/07/06 00:57:20;;;;;;;10.80;5.10;;;;;;;16.01;88.68;100249.90;181040;1266;43752;-58
2023/07/06 01:01:33;;;;;;;5.80;3.50;;;;;;;15.93;88.74;100252.45;180982;1267;43369;-58
2023/07/06 01:05:38;;;;;;;8.00;3.50;;;;;;;15.84;89.11;100253.65;180939;1267;43061;-59
2023/07/06 01:09:41;;;;;;;6.00;4.20;;;;;;;15.76;88.36;100252.89;181028;1267;43664;-58
2023/07/06 01:13:49;;;;;;;9.40;4.70;;;;;;;15.65;88.88;100255.05;180988;1267;58414;-58
2023/07/06 01:23:28;;;;;;;6.50;3.50;;;;;;;15.52;89.14;100247.06;180460;1271;43912;-59
2023/07/06 01:27:36;;;;;;;4.70;3.50;;;;;;;15.48;89.32;100246.67;180370;1273;43383;-59
2023/07/06 01:32:01;;;;;;;8.10;4.60;;;;;;;15.40;89.16;100246.23;180089;1273;43047;-58
2023/07/06 01:36:08;;;;;;;7.20;2.60;;;;;;;15.33;88.76;100249.98;180516;1273;57649;-60
2023/07/06 01:40:12;;;;;;;9.30;4.60;;;;;;;15.24;89.16;100255.08;180433;1273;43501;-59
2023/07/06 01:44:16;;;;;;;5.60;3.60;;;;;;;15.20;90.07;100251.94;180506;1272;43182;-58
2023/07/06 01:48:20;;;;;;;6.50;4.50;;;;;;;15.15;91.89;100251.93;180602;1273;43804;-58
2023/07/06 01:52:45;;;;;;;12.00;5.10;;;;;;;14.92;95.28;100252.42;180667;1274;43814;-58
2023/07/06 01:56:57;;;;;;;9.10;4.80;;;;;;;14.74;95.65;100249.56;180844;1267;58056;-58
2023/07/06 02:01:14;;;;;;;11.90;4.80;;;;;;;14.72;94.67;100256.94;181026;1267;43110;-58
2023/07/06 02:05:19;;;;;;;10.80;5.20;;;;;;;14.72;94.09;100258.04;180949;1267;43026;-58
2023/07/06 02:09:24;;;;;;;5.20;4.10;;;;;;;14.70;93.71;100260.98;180958;1267;43919;-58
2023/07/06 02:13:27;;;;;;;8.60;3.80;;;;;;;14.64;95.12;100263.44;181062;1267;42969;-59
2023/07/06 02:17:30;;;;;;;7.40;3.80;;;;;;;14.54;95.80;100272.41;180953;1267;58465;-59
2023/07/06 02:21:38;;;;;;;4.30;3.00;;;;;;;14.40;97.06;100271.80;181017;1267;43336;-58
2023/07/06 02:25:42;;;;;;;9.00;5.10;;;;;;;14.38;96.66;100273.26;180975;1267;43412;-58
2023/07/06 02:29:45;;;;;;;5.80;3.10;;;;;;;14.42;96.26;100271.42;181020;1267;43103;-58
2023/07/06 02:34:00;;;;;;;6.40;4.50;;;;;;;14.47;95.81;100274.02;181027;1267;43065;-60
2023/07/06 02:38:03;;;;;;;5.10;4.10;;;;;;;14.42;95.87;100278.73;181020;1267;57679;-58
2023/07/06 02:42:07;;;;;;;8.80;4.00;;;;;;;14.29;96.19;100279.70;181012;1266;43156;-59
2023/07/06 09:04:16;;;;;;;37.10;5.80;;;;;;;27.21;47.17;100399.83;174474;1283;579540;-85
2023/07/06 09:08:27;;;;;;;1.90;1.70;;;;;;;26.92;47.91;100398.94;177946;1265;111978;-84
2023/07/06 09:12:34;;;;;;;6.70;3.00;;;;;;;27.21;48.02;100399.86;178300;1257;46087;-85
2023/07/06 09:16:55;;;;;;;5.10;2.30;;;;;;;27.36;48.13;100389.73;178448;1257;46015;-85
2023/07/06 09:21:00;;;;;;;3.40;1.90;;;;;;;27.37;48.18;100398.59;177939;1262;44825;-84
2023/07/06 09:25:05;;;;;;;5.50;2.00;;;;;;;27.52;48.88;100399.76;178036;1257;45912;-84
2023/07/06 09:29:22;;;;;;;4.40;2.10;;;;;;;27.73;46.77;100396.05;178086;1257;58095;-84
2023/07/06 09:33:27;;;;;;;2.50;2.00;;;;;;;27.73;47.49;100393.11;178008;1259;45986;-85
2023/07/06 09:37:31;;;;;;;5.50;1.50;;;;;;;27.74;46.10;100396.13;177875;1260;46134;-85
2023/07/06 09:41:44;;;;;;;3.40;2.20;;;;;;;27.64;45.77;100401.80;178562;1257;45953;-85
2023/07/06 09:46:09;;;;;;;1.80;1.50;;;;;;;27.62;46.84;100403.01;178191;1261;45880;-84
2023/07/06 09:50:20;;;;;;;7.10;2.00;;;;;;;27.56;45.45;100405.41;178507;1257;57999;-85
2023/07/06 09:54:32;;;;;;;7.50;2.60;;;;;;;27.04;45.12;100407.67;178516;1257;46243;-84
2023/07/06 09:58:36;;;;;;;8.50;2.60;;;;;;;27.03;46.31;100405.39;178631;1257;46126;-84
2023/07/06 10:03:08;;;;;;;4.30;1.50;;;;;;;27.37;47.38;100399.66;178065;1257;44013;-84
2023/07/06 10:07:38;;;;;;;4.50;1.90;;;;;;;26.93;45.24;100400.42;178476;1257;46029;-84
2023/07/06 10:12:10;;;;;;;5.10;2.00;;;;;;;26.76;46.37;100402.80;178300;1257;59656;-84
2023/07/06 10:16:28;;;;;;;7.70;2.00;;;;;;;26.97;46.59;100400.02;177743;1264;45982;-85
2023/07/06 10:20:49;;;;;;;4.90;2.10;;;;;;;27.00;46.63;100404.17;177856;1263;44186;-85
2023/07/06 10:25:06;;;;;;;5.10;2.40;;;;;;;27.05;46.00;100402.92;177552;1263;46875;-85
2023/07/06 10:29:16;;;;;;;8.70;2.90;;;;;;;27.27;47.25;100397.17;177475;1263;46006;-85
2023/07/06 10:33:40;;;;;;;4.80;2.50;;;;;;;27.50;44.93;100395.98;178625;1259;57932;-85
2023/07/06 10:37:44;;;;;;;5.40;2.50;;;;;;;27.67;46.05;100391.20;177966;1260;46153;-85
2023/07/06 10:41:49;;;;;;;3.90;1.80;;;;;;;27.72;43.50;100389.14;178218;1260;44757;-85
2023/07/06 10:45:56;;;;;;;;;;;;;;;27.72;44.22;100391.98;177819;1262;45853;-85
2023/07/06 10:50:14;;;;;;;2.30;1.30;;;;;;;27.35;44.12;100392.16;178488;1260;43688;-85
2023/07/06 10:54:23;;;;;;;4.30;1.70;;;;;;;26.93;44.46;100403.13;179339;1253;58215;-85
2023/07/06 10:58:30;;;;;;;2.10;1.80;;;;;;;26.70;43.95;100404.34;178504;1253;45988;-85
2023/07/06 11:02:40;;;;;;;3.60;1.50;;;;;;;26.94;43.44;100397.02;178669;1256;46009;-85
2023/07/06 11:06:52;;;;;;;2.20;1.30;;;;;;;27.15;44.73;100391.30;178530;1254;45976;-85
2023/07/06 11:11:02;;;;;;;2.30;1.10;;;;;;;27.60;44.59;100384.88;178984;1256;46039;-85
2023/07/06 11:15:16;;;;;;;3.30;1.00;;;;;;;28.09;43.71;100379.78;179139;1253;57458;-85
2023/07/06 11:19:26;;;;;;;9.30;1.70;;;;;;;28.24;42.59;100377.55;179197;1253;45874;-86
2023/07/06 11:23:38;;;;;;;3.70;1.90;;;;;;;28.40;44.28;100376.73;179265;1254;46085;-85
2023/07/06 11:27:48;;;;;;;2.70;1.70;;;;;;;28.44;42.82;100377.04;178497;1253;46038;-85
2023/07/06 11:32:34;;;;;;;1.50;1.20;;;;;;;28.42;42.05;100376.38;178808;1254;46143;-86
2023/07/06 11:37:01;;;;;;;10.50;2.90;;;;;;;28.54;44.91;100378.00;179037;1254;58333;-85
2023/07/06 11:41:27;;;;;;;1.80;1.10;;;;;;;28.56;42.76;100377.48;178500;1254;45904;-85
2023/07/06 11:45:48;;;;;;;10.20;3.40;;;;;;;28.42;40.60;100375.67;178679;1253;45977;-85
2023/07/06 11:49:57;;;;;;;1.60;0.80;;;;;;;28.30;42.81;100377.46;178782;1253;45964;-85
2023/07/06 11:54:03;;;;;;;2.40;1.30;;;;;;;28.32;43.57;100374.81;178805;1253;46009;-85
2023/07/06 11:58:29;;;;;;;1.40;0.80;;;;;;;28.40;43.08;100378.05;178543;1253;58505;-85
2023/07/06 12:02:33;;;;;;;3.00;1.10;;;;;;;28.59;41.92;100376.44;179200;1253;45935;-85
2023/07/06 12:06:37;;;;;;;1.80;0.90;;;;;;;28.40;41.54;100378.69;178786;1253;45916;-84
2023/07/06 12:10:45;;;;;;;7.50;1.50;;;;;;;27.86;41.64;100377.86;179592;1254;46194;-85
2023/07/06 12:14:54;;;;;;;3.90;1.60;;;;;;;27.76;42.67;100378.64;179460;1253;46040;-85
2023/07/06 12:19:07;;;;;;;6.50;1.80;;;;;;;27.62;42.45;100382.84;179169;1253;58216;-85
2023/07/06 12:23:12;;;;;;;1.80;0.70;;;;;;;27.41;42.37;100383.70;178743;1254;46507;-85
2023/07/06 12:27:17;;;;;;;7.20;2.80;;;;;;;27.23;42.71;100382.91;179040;1254;46016;-85
2023/07/06 12:31:23;;;;;;;4.40;1.10;;;;;;;26.79;43.17;100382.48;178681;1255;46102;-85
2023/07/06 12:35:27;;;;;;;1.40;0.80;;;;;;;26.82;43.59;100375.98;178172;1253;54066;-85
2023/07/06 12:39:42;;;;;;;1.20;0.80;;;;;;;26.79;44.49;100374.78;178097;1257;58249;-85
2023/07/06 12:43:46;;;;;;;;;;;;;;;26.68;44.09;100371.63;178213;1257;46003;-84
2023/07/06 12:47:58;;;;;;;1.80;1.50;;;;;;;26.77;44.55;100368.45;178501;1254;45702;-85
2023/07/06 12:52:03;;;;;;;1.10;0.60;;;;;;;26.80;45.41;100368.90;177928;1254;46010;-85
2023/07/06 12:56:10;;;;;;;5.00;2.20;;;;;;;26.78;44.70;100369.45;178490;1253;46724;-84
2023/07/06 13:00:17;;;;;;;5.00;1.50;;;;;;;26.96;44.72;100370.67;177981;1254;58613;-84
2023/07/06 13:04:20;;;;;;;4.00;1.00;;;;;;;27.16;44.63;100367.56;178166;1253;45999;-85
2023/07/06 13:08:24;;;;;;;34.90;8.80;;;;;;;27.40;43.89;100370.06;178481;1254;46086;-85
2023/07/06 13:12:34;;;;;;;10.20;2.80;;;;;;;27.18;43.94;100367.45;178275;1254;45971;-85
2023/07/06 13:16:40;;;;;;;2.20;0.90;;;;;;;27.07;44.31;100368.42;178243;1253;46057;-85
2023/07/06 13:20:47;;;;;;;7.00;1.70;;;;;;;27.33;43.96;100366.45;177948;1254;57987;-85
2023/07/06 13:24:51;;;;;;;3.00;1.00;;;;;;;27.54;42.83;100369.98;178297;1254;45962;-85
2023/07/06 13:28:56;;;;;;;3.60;2.00;;;;;;;27.66;42.92;100362.77;179117;1256;46117;-84
2023/07/06 13:33:00;;;;;;;1.60;0.90;;;;;;;27.77;42.47;100359.52;178334;1254;46000;-85
2023/07/06 13:37:20;;;;;;;1.40;1.00;;;;;;;27.93;41.58;100358.67;178656;1254;44043;-86
2023/07/06 13:41:28;;;;;;;3.60;1.80;;;;;;;28.10;41.37;100358.76;178647;1254;59486;-85
2023/07/06 13:45:37;;;;;;;2.60;1.10;;;;;;;28.18;41.28;100355.98;178750;1257;46514;-85
2023/07/06 13:49:41;;;;;;;5.00;2.10;;;;;;;28.35;41.16;100360.36;178694;1254;45968;-85
2023/07/06 13:53:50;;;;;;;2.70;0.70;;;;;;;28.69;42.92;100363.66;179110;1253;46066;-85
2023/07/06 13:57:54;;;;;;;2.20;1.20;;;;;;;29.07;42.10;100353.57;178983;1253;46159;-85
2023/07/06 14:02:02;;;;;;;1.60;0.80;;;;;;;29.37;42.54;100353.41;178996;1253;59195;-86
2023/07/06 14:06:10;;;;;;;9.90;2.20;;;;;;;29.55;40.58;100350.84;179115;1256;46597;-86
2023/07/06 14:10:17;;;;;;;3.50;1.70;;;;;;;29.43;41.22;100352.17;179207;1253;45995;-86
2023/07/06 14:14:20;;;;;;;2.60;1.00;;;;;;;29.23;41.54;100351.36;179024;1254;44728;-85
2023/07/06 14:18:26;;;;;;;2.70;1.30;;;;;;;29.33;43.28;100351.96;179573;1254;50378;-86
2023/07/06 14:22:30;;;;;;;4.60;1.90;;;;;;;29.13;41.95;100356.08;179444;1253;59542;-85
2023/07/06 14:26:34;;;;;;;13.20;2.20;;;;;;;28.66;41.65;100361.52;179513;1253;45833;-85
2023/07/06 14:30:37;;;;;;;2.30;1.10;;;;;;;28.34;42.95;100362.61;179411;1253;44767;-86
2023/07/06 14:34:42;;;;;;;5.10;1.70;;;;;;;28.12;43.06;100359.29;178913;1254;45939;-86
2023/07/06 14:38:45;;;;;;;1.90;1.20;;;;;;;27.62;43.68;100360.66;178833;1254;44774;-86
2023/07/06 14:42:53;;;;;;;1.90;1.30;;;;;;;27.62;44.07;100358.41;178805;1253;59562;-86
2023/07/06 14:46:57;;;;;;;4.30;0.70;;;;;;;27.79;43.43;100354.59;179410;1253;44194;-86
2023/07/06 14:51:12;;;;;;;1.60;1.40;;;;;;;27.81;42.93;100349.56;178933;1256;46059;-86
2023/07/06 14:55:16;;;;;;;2.30;1.60;;;;;;;27.91;43.80;100352.29;178533;1253;46127;-86
2023/07/06 14:59:19;;;;;;;3.90;1.50;;;;;;;28.01;44.54;100351.56;178455;1254;45879;-86
2023/07/06 15:03:22;;;;;;;3.20;1.40;;;;;;;28.09;43.21;100356.23;178444;1254;58593;-86
2023/07/06 15:07:25;;;;;;;5.80;2.10;;;;;;;28.19;42.42;100357.20;178232;1254;46080;-86
2023/07/06 15:11:29;;;;;;;6.00;1.80;;;;;;;28.14;42.06;100347.64;178555;1254;46307;-86
2023/07/06 15:15:32;;;;;;;2.40;1.30;;;;;;;28.19;42.91;100347.98;178272;1254;46156;-86
2023/07/06 15:19:35;;;;;;;2.60;1.00;;;;;;;28.00;43.43;100347.45;178066;1253;45983;-86
2023/07/06 15:23:41;;;;;;;2.60;1.40;;;;;;;27.60;44.06;100350.23;178147;1253;59885;-86
2023/07/06 15:27:44;;;;;;;5.80;1.70;;;;;;;27.24;44.47;100350.80;178587;1253;46429;-86
2023/07/06 15:31:47;;;;;;;3.90;1.50;;;;;;;27.46;46.58;100345.20;178442;1254;46143;-86
2023/07/06 15:35:51;;;;;;;5.50;1.40;;;;;;;27.84;45.89;100344.19;178249;1254;45858;-86
2023/07/06 15:39:57;;;;;;;1.60;1.30;;;;;;;28.02;43.20;100341.64;178053;1253;45976;-86
2023/07/06 15:44:02;;;;;;;3.20;1.40;;;;;;;28.07;42.86;100341.79;178117;1257;57231;-85
2023/07/06 15:48:05;;;;;;;1.60;0.90;;;;;;;28.10;42.77;100344.65;178263;1254;46521;-86
2023/07/06 15:52:08;;;;;;;3.10;1.50;;;;;;;28.10;42.91;100336.35;178170;1254;45971;-85
2023/07/06 15:56:12;;;;;;;1.80;1.10;;;;;;;28.00;42.42;100334.90;178058;1254;46066;-85
2023/07/06 16:00:15;;;;;;;3.70;1.50;;;;;;;27.74;42.69;100338.81;178224;1254;46019;-85
2023/07/06 16:04:18;;;;;;;2.80;1.00;;;;;;;27.58;42.24;100339.58;178244;1254;59373;-86
2023/07/06 16:08:22;;;;;;;3.10;1.50;;;;;;;27.45;42.43;100340.03;178309;1254;46137;-85
2023/07/06 16:12:25;;;;;;;1.30;1.00;;;;;;;27.10;43.35;100344.27;178035;1258;46027;-86
2023/07/06 16:16:28;;;;;;;3.60;1.50;;;;;;;26.95;43.58;100348.15;178044;1254;44881;-86
2023/07/06 16:20:34;;;;;;;5.30;1.50;;;;;;;27.06;43.46;100345.59;178295;1254;46028;-86
2023/07/06 16:24:38;;;;;;;2.20;1.20;;;;;;;27.11;43.75;100343.58;178309;1253;59333;-85
2023/07/06 16:28:44;;;;;;;2.90;1.50;;;;;;;27.02;42.17;100335.87;178225;1254;46125;-86
2023/07/06 16:32:47;;;;;;;3.50;1.40;;;;;;;26.95;42.13;100348.81;179514;1253;46674;-85
2023/07/06 16:36:51;;;;;;;6.90;2.30;;;;;;;26.68;42.75;100349.98;179692;1254;46095;-86
2023/07/06 16:40:55;;;;;;;8.40;1.70;;;;;;;26.34;44.31;100353.04;178282;1254;45987;-85
2023/07/06 16:44:58;;;;;;;14.70;2.30;;;;;;;26.03;45.25;100354.71;178310;1253;59126;-85
2023/07/06 16:49:02;;;;;;;3.00;2.00;;;;;;;25.92;46.32;100359.54;178726;1254;45915;-86
2023/07/06 16:53:06;;;;;;;6.10;1.90;;;;;;;25.98;46.06;100360.39;178418;1256;46072;-86
2023/07/06 16:57:10;;;;;;;2.90;1.40;;;;;;;25.99;44.40;100359.71;178323;1254;46008;-86
2023/07/06 17:01:14;;;;;;;6.60;1.40;;;;;;;26.03;44.88;100363.19;178316;1254;44800;-87
2023/07/06 17:05:17;;;;;;;3.60;1.70;;;;;;;25.96;45.25;100369.10;177990;1254;58055;-86
2023/07/06 17:09:21;;;;;;;2.50;1.60;;;;;;;25.96;46.67;100368.83;178488;1254;46117;-88
2023/07/06 17:13:24;;;;;;;1.00;0.80;;;;;;;25.90;47.64;100370.23;178609;1258;45955;-88
2023/07/06 17:17:28;;;;;;;3.30;1.40;;;;;;;25.87;47.59;100372.24;179093;1256;45923;-89
2023/07/06 17:21:33;;;;;;;1.50;1.30;;;;;;;25.82;46.21;100375.01;179184;1254;46013;-86
2023/07/06 17:25:37;;;;;;;1.80;0.80;;;;;;;25.74;46.06;100369.64;179021;1254;58223;-87
2023/07/06 17:29:40;;;;;;;2.30;1.30;;;;;;;25.64;47.03;100375.57;178793;1254;45964;-89
2023/07/06 17:33:44;;;;;;;3.30;1.20;;;;;;;25.58;46.76;100376.47;179352;1254;46037;-88
2023/07/06 17:37:48;;;;;;;2.40;1.50;;;;;;;25.52;46.90;100380.23;179056;1253;45989;-89
2023/07/06 17:41:53;;;;;;;1.80;1.10;;;;;;;25.46;46.70;100382.23;179909;1254;45943;-89
2023/07/06 17:45:57;;;;;;;1.30;1.20;;;;;;;25.42;47.43;100384.70;179954;1254;59967;-89
2023/07/06 17:50:02;;;;;;;3.10;1.30;;;;;;;25.40;47.64;100381.86;180378;1254;43747;-89
2023/07/06 17:54:05;;;;;;;1.60;1.30;;;;;;;25.40;48.45;100384.04;179904;1254;44637;-89
2023/07/06 17:58:09;;;;;;;1.30;1.00;;;;;;;25.39;48.93;100385.18;179554;1254;46102;-88
2023/07/06 18:02:13;;;;;;;2.00;0.90;;;;;;;25.35;48.93;100389.78;179487;1253;44303;-85
2023/07/06 18:06:20;;;;;;;2.50;1.70;;;;;;;25.26;51.86;100394.41;179176;1254;59350;-89
2023/07/06 18:10:24;;;;;;;4.00;1.50;;;;;;;25.14;53.40;100397.63;179290;1254;45917;-89
2023/07/06 18:14:27;;;;;;;5.60;1.50;;;;;;;24.96;54.12;100399.36;179228;1253;45946;-90
2023/07/06 18:18:31;;;;;;;14.00;1.60;;;;;;;24.83;53.55;100401.55;178796;1254;46073;-87
2023/07/06 18:22:34;;;;;;;3.60;1.50;;;;;;;24.70;55.77;100407.40;178783;1254;46379;-86
2023/07/06 18:26:39;;;;;;;4.40;1.20;;;;;;;24.59;53.00;100408.13;178861;1254;59624;-88
2023/07/06 18:30:44;;;;;;;2.70;1.50;;;;;;;24.50;52.45;100409.67;178829;1254;46069;-90
2023/07/06 18:34:49;;;;;;;1.20;1.00;;;;;;;24.32;54.92;100413.95;178714;1254;45947;-87
2023/07/06 18:38:53;;;;;;;1.90;1.10;;;;;;;24.10;58.89;100418.48;179115;1254;46008;-85
2023/07/06 18:42:56;;;;;;;5.80;1.60;;;;;;;23.94;60.28;100420.61;178350;1254;45961;-88
2023/07/06 18:47:01;;;;;;;3.80;2.00;;;;;;;23.76;60.17;100425.45;178414;1253;59288;-88
2023/07/06 18:51:06;;;;;;;2.10;1.70;;;;;;;23.57;61.47;100430.09;178718;1256;44625;-87
2023/07/06 18:55:10;;;;;;;2.10;1.30;;;;;;;23.38;61.45;100432.84;178397;1253;46151;-87
2023/07/06 18:59:14;;;;;;;1.50;1.40;;;;;;;23.20;61.15;100438.16;178497;1253;46368;-87
2023/07/06 19:03:17;;;;;;;2.50;1.40;;;;;;;23.06;61.42;100444.43;178866;1257;45984;-85
2023/07/06 19:07:21;;;;;;;1.90;1.10;;;;;;;22.89;59.71;100447.59;178540;1253;59799;-84
2023/07/06 19:11:24;;;;;;;2.60;1.70;;;;;;;22.72;56.61;100453.49;178153;1254;46538;-85
2023/07/06 19:15:27;;;;;;;2.50;1.40;;;;;;;22.60;57.29;100460.45;179505;1257;45935;-84
2023/07/06 19:19:31;;;;;;;3.60;1.40;;;;;;;22.47;58.65;100467.17;179044;1259;46135;-84
2023/07/06 19:23:34;;;;;;;3.30;1.50;;;;;;;22.31;58.82;100473.56;180218;1258;45908;-84
2023/07/06 19:27:37;;;;;;;5.40;1.90;;;;;;;22.10;62.82;100479.77;179492;1259;57116;-84
2023/07/06 19:31:41;;;;;;;5.90;2.80;;;;;;;21.81;65.15;100489.60;179505;1258;46098;-84
2023/07/06 19:35:44;;;;;;;13.80;9.10;;;;;;;21.41;65.81;100494.89;179268;1261;46237;-84
2023/07/06 19:39:47;;;;;;;14.60;9.20;;;;;;;20.96;67.50;100507.29;179105;1258;46121;-85
2023/07/06 19:43:50;;;;;;;27.00;8.50;;;;;;;20.56;68.12;100512.13;179529;1259;44671;-84
2023/07/06 19:47:55;;;;;;;34.70;10.90;;;;;;;20.18;69.76;100517.86;179022;1259;58058;-84
2023/07/06 19:51:59;;;;;;;16.30;7.90;;;;;;;19.84;71.31;100521.67;179812;1259;45146;-84
2023/07/06 19:56:03;;;;;;;9.90;7.20;;;;;;;19.51;73.07;100525.28;178495;1260;45994;-84
2023/07/06 20:00:07;;;;;;;13.00;6.40;;;;;;;19.20;74.24;100529.95;178676;1259;46416;-84
2023/07/06 20:04:10;;;;;;;14.60;8.30;;;;;;;18.93;74.60;100529.68;179405;1259;46022;-83
2023/07/06 20:08:14;;;;;;;16.50;9.20;;;;;;;18.72;75.58;100535.33;178932;1259;58482;-83
2023/07/06 20:12:17;;;;;;;19.40;8.60;;;;;;;18.61;76.43;100534.88;179198;1259;46121;-84
2023/07/06 20:16:20;;;;;;;16.00;8.70;;;;;;;18.53;77.13;100539.38;179291;1259;44054;-84
2023/07/06 20:20:27;;;;;;;16.50;8.30;;;;;;;18.47;79.60;100545.67;178760;1258;44733;-84
2023/07/06 20:24:30;;;;;;;11.70;7.20;;;;;;;18.41;79.99;100552.52;178198;1261;46604;-84
2023/07/06 20:28:33;;;;;;;10.30;6.80;;;;;;;18.38;79.93;100552.73;178554;1258;59277;-84
2023/07/06 20:32:37;;;;;;;13.60;7.70;;;;;;;18.31;81.17;100556.75;178408;1259;46214;-83
2023/07/06 20:36:40;;;;;;;8.90;6.80;;;;;;;18.19;81.40;100558.22;178121;1258;46000;-84
2023/07/06 20:40:43;;;;;;;8.80;6.70;;;;;;;18.11;81.42;100562.66;178073;1259;45937;-83
2023/07/06 20:44:48;;;;;;;9.20;5.40;;;;;;;18.06;81.16;100568.27;178224;1258;44144;-83
2023/07/06 20:48:51;;;;;;;119.40;17.70;;;;;;;18.03;81.53;100575.37;177756;1259;59627;-83
2023/07/06 20:52:56;;;;;;;42.90;12.90;;;;;;;18.00;81.59;100575.35;177797;1259;45967;-84
2023/07/06 20:57:00;;;;;;;22.80;6.70;;;;;;;17.93;82.22;100578.38;178084;1259;46030;-84
2023/07/06 21:01:03;;;;;;;14.80;5.70;;;;;;;17.84;82.36;100577.21;178380;1258;44854;-84
2023/07/06 21:05:07;;;;;;;6.70;3.70;;;;;;;17.80;81.95;100579.42;177518;1262;227026;-84
2023/07/06 21:09:10;;;;;;;5.80;4.10;;;;;;;17.76;82.36;100582.89;177827;1259;59277;-84
2023/07/06 21:13:13;;;;;;;8.20;5.10;;;;;;;17.71;83.14;100587.88;177835;1259;45970;-84
2023/07/06 21:17:17;;;;;;;8.20;4.10;;;;;;;17.63;83.39;100589.13;177848;1258;45985;-84
2023/07/06 21:21:20;;;;;;;8.70;4.70;;;;;;;17.55;83.47;100591.98;177739;1259;47340;-84
2023/07/06 21:25:23;;;;;;;12.90;9.10;;;;;;;17.44;84.36;100599.18;177668;1261;45997;-84
2023/07/06 21:29:26;;;;;;;14.80;7.60;;;;;;;17.35;85.33;100604.88;177695;1258;59351;-84
2023/07/06 21:33:29;;;;;;;11.80;6.90;;;;;;;17.19;87.46;100606.26;177393;1259;46079;-84
2023/07/06 21:37:32;;;;;;;10.30;7.40;;;;;;;17.03;87.05;100609.27;177747;1258;46194;-84
2023/07/06 21:41:37;;;;;;;10.50;5.70;;;;;;;16.97;86.95;100613.72;177661;1259;46256;-84
2023/07/06 21:45:40;;;;;;;10.80;7.60;;;;;;;16.93;86.80;100623.08;177882;1258;44496;-84
2023/07/06 21:49:43;;;;;;;10.60;4.80;;;;;;;16.89;86.68;100626.16;177854;1258;58308;-84
2023/07/06 21:53:47;;;;;;;12.10;8.60;;;;;;;16.86;86.55;100625.46;177834;1259;46124;-84
2023/07/06 21:57:50;;;;;;;7.00;4.70;;;;;;;16.79;87.02;100626.91;177380;1258;47678;-84
2023/07/06 22:01:53;;;;;;;6.90;4.70;;;;;;;16.66;87.45;100630.15;178078;1258;46030;-84
2023/07/06 22:06:05;;;;;;;6.90;4.20;;;;;;;16.52;87.69;100632.61;177613;1259;47104;-84
2023/07/06 22:10:12;;;;;;;8.50;4.30;;;;;;;16.36;88.50;100637.08;177587;1259;59618;-84
2023/07/06 22:14:15;;;;;;;9.70;3.50;;;;;;;16.25;89.59;100636.38;177511;1259;46142;-85
2023/07/06 22:18:18;;;;;;;4.40;3.20;;;;;;;16.21;90.34;100640.71;177736;1259;46047;-84
2023/07/06 22:22:21;;;;;;;7.10;2.80;;;;;;;16.10;91.31;100646.98;178015;1259;46167;-84
2023/07/06 22:26:25;;;;;;;8.10;4.00;;;;;;;16.02;91.02;100645.86;177832;1259;45998;-84
2023/07/06 22:30:28;;;;;;;3.40;2.90;;;;;;;15.94;92.65;100646.95;177669;1259;59327;-84
2023/07/06 22:34:33;;;;;;;4.10;3.00;;;;;;;15.72;93.67;100651.56;177428;1259;44780;-84
2023/07/06 22:38:38;;;;;;;7.70;2.80;;;;;;;15.55;96.89;100657.48;177856;1259;46052;-84
2023/07/06 22:42:41;;;;;;;5.40;3.30;;;;;;;15.43;95.44;100657.25;177813;1259;45920;-83
2023/07/06 22:46:45;;;;;;;4.90;3.10;;;;;;;15.39;94.61;100661.73;177887;1259;46091;-83
2023/07/06 22:50:48;;;;;;;7.50;4.50;;;;;;;15.37;94.24;100664.48;177098;1261;59599;-83
2023/07/06 22:54:51;;;;;;;4.60;3.50;;;;;;;15.31;93.56;100667.65;177228;1258;45952;-83
2023/07/06 22:58:54;;;;;;;3.40;2.80;;;;;;;15.28;93.58;100666.39;177103;1259;46086;-83
2023/07/06 23:02:57;;;;;;;2.90;2.50;;;;;;;15.26;93.19;100669.67;177504;1259;46101;-84
2023/07/06 23:07:01;;;;;;;4.90;3.30;;;;;;;15.13;93.61;100669.36;177501;1259;46231;-84
2023/07/06 23:11:04;;;;;;;10.30;3.30;;;;;;;14.93;94.23;100666.04;177296;1258;58671;-84
2023/07/06 23:15:08;;;;;;;5.30;3.70;;;;;;;14.75;94.10;100665.27;177369;1259;44398;-84
2023/07/06 23:19:12;;;;;;;4.30;3.30;;;;;;;14.64;95.02;100673.38;177477;1259;46096;-84
2023/07/06 23:23:16;;;;;;;5.50;4.80;;;;;;;14.52;97.82;100677.56;177443;1259;46233;-85
2023/07/06 23:27:19;;;;;;;12.10;5.90;;;;;;;14.52;99.49;100675.35;177842;1259;45914;-84
2023/07/06 23:31:31;;;;;;;8.70;5.40;;;;;;;14.61;99.60;100672.05;177700;1259;57506;-83
2023/07/06 23:35:40;;;;;;;9.50;6.10;;;;;;;14.71;100.00;100679.73;177558;1257;46012;-83
2023/07/06 23:39:45;;;;;;;5.70;4.80;;;;;;;14.81;99.76;100679.33;178131;1259;46171;-82
2023/07/06 23:43:49;;;;;;;6.80;5.10;;;;;;;14.87;99.38;100682.21;177561;1261;46171;-82
2023/07/06 23:47:52;;;;;;;8.10;5.40;;;;;;;14.86;99.40;100688.17;177854;1259;46178;-82
2023/07/06 23:51:55;;;;;;;9.30;5.30;;;;;;;14.88;98.34;100684.23;177383;1259;58104;-82
2023/07/06 23:55:58;;;;;;;10.90;5.30;;;;;;;14.91;97.17;100689.13;176284;1259;46134;-82
